Weather data: current Sonntag, 09.07.2017 05:10
Date Time Temperature Humidity Barometer Rain Wind Direction Direction Dew point Wind chill Wind gust
09.07.2017 05:10 22,6 C 84 % 1014,2 hPa 0,0 l/m 2,8 km/h (1 Bft) NE 46 19,8 C 22,6 C 4,8 km/h (1 Bft)
09.07.2017 05:05 22,6 C 83 % 1014,2 hPa 0,0 l/m 1,8 km/h (1 Bft) NE 44 19,6 C 22,6 C 3,2 km/h (1 Bft)
09.07.2017 05:01 22,6 C 83 % 1014,2 hPa 0,0 l/m 1,7 km/h (1 Bft) NE 36 19,6 C 22,6 C 4,8 km/h (1 Bft)
09.07.2017 04:55 22,7 C 83 % 1014,3 hPa 0,0 l/m 1,5 km/h (1 Bft) NE 43 19,7 C 22,7 C 4,8 km/h (1 Bft)
09.07.2017 04:50 22,6 C 83 % 1014,4 hPa 0,0 l/m 1,4 km/h (1 Bft) N-NE 13 19,6 C 22,6 C 4,8 km/h (1 Bft)
09.07.2017 04:45 22,6 C 83 % 1014,4 hPa 0,0 l/m 2,8 km/h (1 Bft) N 8 19,6 C 22,6 C 6,4 km/h (2 Bft)
09.07.2017 04:40 22,6 C 83 % 1014,4 hPa 0,0 l/m 2,4 km/h (1 Bft) NE 45 19,6 C 22,6 C 3,2 km/h (1 Bft)
09.07.2017 04:35 22,5 C 83 % 1014,5 hPa 0,0 l/m 2,3 km/h (1 Bft) NE 34 19,5 C 22,5 C 4,8 km/h (1 Bft)
09.07.2017 04:30 22,5 C 83 % 1014,5 hPa 0,0 l/m 3,4 km/h (1 Bft) N-NE 24 19,5 C 22,5 C 6,4 km/h (2 Bft)
09.07.2017 04:25 22,3 C 82 % 1014,5 hPa 0,0 l/m 0,7 km/h (0 Bft) NE 53 19,1 C 22,3 C 3,2 km/h (1 Bft)
09.07.2017 04:20 22,2 C 82 % 1014,5 hPa 0,0 l/m 0,6 km/h (0 Bft) N-NE 20 19,0 C 22,2 C 3,2 km/h (1 Bft)
09.07.2017 04:15 22,1 C 82 % 1014,4 hPa 0,0 l/m 2,2 km/h (1 Bft) N 9 18,9 C 22,1 C 4,8 km/h (1 Bft)
09.07.2017 04:10 22,2 C 81 % 1014,4 hPa 0,0 l/m 3,1 km/h (1 Bft) NE 46 18,8 C 22,2 C 4,8 km/h (1 Bft)
09.07.2017 04:05 22,4 C 81 % 1014,4 hPa 0,0 l/m 3,3 km/h (1 Bft) N-NE 18 19,0 C 22,4 C 4,8 km/h (1 Bft)
09.07.2017 04:00 22,3 C 81 % 1014,5 hPa 0,0 l/m 0,8 km/h (0 Bft) N-NE 21 18,9 C 22,3 C 3,2 km/h (1 Bft)
09.07.2017 03:55 22,3 C 81 % 1014,5 hPa 0,0 l/m 0,1 km/h (0 Bft) N-NE 21 18,9 C 22,3 C 1,6 km/h (1 Bft)
09.07.2017 03:50 22,3 C 81 % 1014,4 hPa 0,0 l/m 0,9 km/h (0 Bft) N-NE 15 18,9 C 22,3 C 1,6 km/h (1 Bft)
09.07.2017 03:45 22,3 C 80 % 1014,4 hPa 0,0 l/m 1,5 km/h (1 Bft) NE 44 18,7 C 22,3 C 3,2 km/h (1 Bft)
09.07.2017 03:40 22,4 C 80 % 1014,4 hPa 0,0 l/m 0,0 km/h (0 Bft) SE 133 18,8 C 22,4 C 0,0 km/h (0 Bft)
09.07.2017 03:35 22,3 C 81 % 1014,4 hPa 0,0 l/m 0,0 km/h (0 Bft) SE 133 18,9 C 22,3 C 0,0 km/h (0 Bft)
09.07.2017 03:30 22,4 C 81 % 1014,4 hPa 0,0 l/m 0,0 km/h (0 Bft) SE 133 19,0 C 22,4 C 0,0 km/h (0 Bft)
09.07.2017 03:25 22,4 C 81 % 1014,5 hPa 0,0 l/m 0,0 km/h (0 Bft) SE 133 19,0 C 22,4 C 0,0 km/h (0 Bft)
09.07.2017 03:20 22,4 C 81 % 1014,5 hPa 0,0 l/m 0,0 km/h (0 Bft) SE 133 19,0 C 22,4 C 0,0 km/h (0 Bft)
09.07.2017 03:15 22,3 C 80 % 1014,5 hPa 0,0 l/m 0,1 km/h (0 Bft) SE 133 18,7 C 22,3 C 1,6 km/h (1 Bft)
09.07.2017 03:10 22,4 C 80 % 1014,5 hPa 0,0 l/m 0,0 km/h (0 Bft) SE 128 18,8 C 22,4 C 1,6 km/h (1 Bft)
09.07.2017 03:05 22,6 C 80 % 1014,5 hPa 0,0 l/m 0,0 km/h (0 Bft) N 6 19,0 C 22,6 C 0,0 km/h (0 Bft)
09.07.2017 03:00 22,6 C 80 % 1014,5 hPa 0,0 l/m 0,0 km/h (0 Bft) N 6 19,0 C 22,6 C 0,0 km/h (0 Bft)
09.07.2017 02:55 22,7 C 80 % 1014,4 hPa 0,0 l/m 0,0 km/h (0 Bft) N 6 19,1 C 22,7 C 0,0 km/h (0 Bft)
09.07.2017 02:50 22,7 C 81 % 1014,4 hPa 0,0 l/m 0,7 km/h (0 Bft) N 6 19,3 C 22,7 C 1,6 km/h (1 Bft)
09.07.2017 02:45 22,7 C 81 % 1014,4 hPa 0,0 l/m 1,1 km/h (1 Bft) N-NE 20 19,3 C 22,7 C 3,2 km/h (1 Bft)
09.07.2017 02:40 22,7 C 80 % 1014,4 hPa 0,0 l/m 1,0 km/h (0 Bft) N-NE 30 19,1 C 22,7 C 3,2 km/h (1 Bft)
09.07.2017 02:35 22,7 C 80 % 1014,4 hPa 0,0 l/m 0,3 km/h (0 Bft) N 355 19,1 C 22,7 C 1,6 km/h (1 Bft)
09.07.2017 02:30 22,7 C 80 % 1014,4 hPa 0,0 l/m 3,0 km/h (1 Bft) N-NE 17 19,1 C 22,7 C 6,4 km/h (2 Bft)
09.07.2017 02:25 22,7 C 83 % 1014,4 hPa 0,0 l/m 4,7 km/h (1 Bft) N-NE 30 19,7 C 22,7 C 8,0 km/h (2 Bft)
09.07.2017 02:20 22,5 C 84 % 1014,5 hPa 0,0 l/m 3,7 km/h (1 Bft) N-NE 20 19,7 C 22,5 C 8,0 km/h (2 Bft)
09.07.2017 02:15 22,5 C 83 % 1014,6 hPa 0,0 l/m 1,9 km/h (1 Bft) NE 46 19,5 C 22,5 C 3,2 km/h (1 Bft)
09.07.2017 02:10 22,5 C 83 % 1014,6 hPa 0,0 l/m 0,0 km/h (0 Bft) E 89 19,5 C 22,5 C 0,0 km/h (0 Bft)
09.07.2017 02:05 22,4 C 82 % 1014,6 hPa 0,0 l/m 0,0 km/h (0 Bft) E 97 19,2 C 22,4 C 0,0 km/h (0 Bft)
09.07.2017 02:00 22,4 C 81 % 1014,6 hPa 0,0 l/m 0,0 km/h (0 Bft) E 97 19,0 C 22,4 C 0,0 km/h (0 Bft)
09.07.2017 01:55 22,5 C 81 % 1014,6 hPa 0,0 l/m 0,0 km/h (0 Bft) E 97 19,1 C 22,5 C 0,0 km/h (0 Bft)
09.07.2017 01:50 22,5 C 79 % 1014,6 hPa 0,0 l/m 0,0 km/h (0 Bft) E 97 18,7 C 22,5 C 0,0 km/h (0 Bft)
09.07.2017 01:45 22,4 C 81 % 1014,5 hPa 0,0 l/m 0,0 km/h (0 Bft) E 97 19,0 C 22,4 C 0,0 km/h (0 Bft)
09.07.2017 01:40 22,2 C 79 % 1014,5 hPa 0,0 l/m 0,4 km/h (0 Bft) E 97 18,4 C 22,2 C 1,6 km/h (1 Bft)
09.07.2017 01:35 22,2 C 79 % 1014,5 hPa 0,0 l/m 1,6 km/h (1 Bft) E 97 18,4 C 22,2 C 3,2 km/h (1 Bft)
09.07.2017 01:30 22,3 C 79 % 1014,6 hPa 0,0 l/m 1,3 km/h (1 Bft) E 84 18,5 C 22,3 C 3,2 km/h (1 Bft)
09.07.2017 01:25 22,4 C 79 % 1014,6 hPa 0,0 l/m 0,0 km/h (0 Bft) E 82 18,6 C 22,4 C 1,6 km/h (1 Bft)
09.07.2017 01:20 22,7 C 79 % 1014,6 hPa 0,0 l/m 0,0 km/h (0 Bft) E 82 18,9 C 22,7 C 0,0 km/h (0 Bft)
09.07.2017 01:15 22,8 C 78 % 1014,7 hPa 0,0 l/m 0,0 km/h (0 Bft) E 82 18,8 C 22,8 C 0,0 km/h (0 Bft)
09.07.2017 01:10 22,8 C 78 % 1014,7 hPa 0,0 l/m 0,0 km/h (0 Bft) E 82 18,8 C 22,8 C 0,0 km/h (0 Bft)
09.07.2017 01:05 22,8 C 76 % 1014,7 hPa 0,0 l/m 0,0 km/h (0 Bft) E 82 18,3 C 22,8 C 0,0 km/h (0 Bft)
09.07.2017 01:00 23,0 C 76 % 1014,7 hPa 0,0 l/m 0,0 km/h (0 Bft) E 82 18,5 C 23,0 C 1,6 km/h (1 Bft)
09.07.2017 00:55 23,3 C 76 % 1014,8 hPa 0,0 l/m 0,0 km/h (0 Bft) E 82 18,8 C 23,3 C 0,0 km/h (0 Bft)
09.07.2017 00:50 23,4 C 76 % 1014,7 hPa 0,0 l/m 0,0 km/h (0 Bft) E 82 18,9 C 23,4 C 0,0 km/h (0 Bft)
09.07.2017 00:45 23,4 C 75 % 1014,7 hPa 0,0 l/m 0,0 km/h (0 Bft) E 82 18,7 C 23,4 C 0,0 km/h (0 Bft)
09.07.2017 00:40 23,5 C 74 % 1014,7 hPa 0,0 l/m 0,0 km/h (0 Bft) E 82 18,6 C 23,5 C 0,0 km/h (0 Bft)
09.07.2017 00:35 23,6 C 74 % 1014,8 hPa 0,0 l/m 0,0 km/h (0 Bft) E 82 18,7 C 23,6 C 0,0 km/h (0 Bft)
09.07.2017 00:30 23,7 C 74 % 1014,7 hPa 0,0 l/m 0,0 km/h (0 Bft) E 82 18,8 C 23,7 C 0,0 km/h (0 Bft)
09.07.2017 00:25 23,4 C 74 % 1014,8 hPa 0,0 l/m 1,0 km/h (0 Bft) E 82 18,5 C 23,4 C 4,8 km/h (1 Bft)
09.07.2017 00:20 23,1 C 73 % 1014,8 hPa 0,0 l/m 1,4 km/h (1 Bft) E-NE 72 18,0 C 23,1 C 3,2 km/h (1 Bft)
09.07.2017 00:15 23,1 C 73 % 1014,8 hPa 0,0 l/m 2,3 km/h (1 Bft) E-SE 103 18,0 C 23,1 C 4,8 km/h (1 Bft)
09.07.2017 00:10 22,8 C 75 % 1014,9 hPa 0,0 l/m 0,9 km/h (0 Bft) E 80 18,1 C 22,8 C 3,2 km/h (1 Bft)
09.07.2017 00:05 22,9 C 76 % 1014,9 hPa 0,0 l/m 0,0 km/h (0 Bft) E 94 18,4 C 22,9 C 1,6 km/h (1 Bft)
09.07.2017 00:00 23,1 C 76 % 1014,9 hPa 0,0 l/m 0,0 km/h (0 Bft) E 94 18,6 C 23,1 C 1,6 km/h (1 Bft)
_ Min-Time 04:15 00:15 05:01 - 00:00 - - 00:15 04:15 00:30
Minimum _ 22,1 C 73 % 1014,2 hPa - 0,0 km/h (0 Bft) - - 18,0 C 22,1 C 0,0 km/h (0 Bft)
_ Max-Time 00:30 02:20 00:00 00:00 02:25 - - 05:10 00:30 02:20
Maximum _ 23,7 C 84 % 1014,9 hPa 0,0 l/m 4,7 km/h
N-NE (1 Bft)
- - 19,8 C 23,7 C 8,0 km/h
NE (2 Bft)
Average _ 22,6 C 80 % 1014,5 hPa #0,0 l/m 0,9 km/h (0 Bft) NE - 18,9 C 22,6 C 2,3 km/h (1 Bft)